createdAt,value
2022-11-21T00:02:10.109Z,17.60
2022-11-21T00:04:36.992Z,18.80
2022-11-21T00:07:03.871Z,18.17
2022-11-21T00:09:30.963Z,16.80
2022-11-21T00:11:57.892Z,16.08
2022-11-21T00:14:24.942Z,18.63
2022-11-21T00:16:57.049Z,15.15
2022-11-21T00:19:24.416Z,14.82
2022-11-21T00:21:51.565Z,17.00
2022-11-21T00:24:18.507Z,13.75
2022-11-21T00:26:45.662Z,12.07
2022-11-21T00:29:12.964Z,12.98
2022-11-21T00:31:39.906Z,14.15
2022-11-21T00:34:06.821Z,13.80
2022-11-21T00:36:33.686Z,13.57
2022-11-21T00:39:00.902Z,14.07
2022-11-21T00:41:27.793Z,12.80
2022-11-21T00:43:54.727Z,13.07
2022-11-21T00:46:21.576Z,13.13
2022-11-21T00:48:48.550Z,12.75
2022-11-21T00:51:15.781Z,12.68
2022-11-21T00:53:42.685Z,14.18
2022-11-21T00:56:09.654Z,14.50
2022-11-21T00:58:36.576Z,12.45
2022-11-21T01:01:06.810Z,12.15
2022-11-21T01:03:35.081Z,12.55
2022-11-21T01:06:07.873Z,12.80
2022-11-21T01:08:36.661Z,13.35
2022-11-21T01:11:08.502Z,12.38
2022-11-21T01:13:36.234Z,13.65
2022-11-21T01:16:05.696Z,13.13
2022-11-21T01:18:33.013Z,12.63
2022-11-21T01:21:14.642Z,12.63
2022-11-21T01:23:41.913Z,12.25
2022-11-21T01:26:13.389Z,13.27
2022-11-21T01:28:40.701Z,12.27
2022-11-21T01:31:13.272Z,12.50
2022-11-21T01:33:40.448Z,12.40
2022-11-21T01:36:14.873Z,11.60
2022-11-21T01:38:44.232Z,14.73
2022-11-21T01:41:12.648Z,13.95
2022-11-21T01:43:40.101Z,13.43
2022-11-21T01:46:09.949Z,14.45
2022-11-21T01:49:02.827Z,12.88
2022-11-21T01:51:49.945Z,13.23
2022-11-21T01:54:25.122Z,13.85
2022-11-21T01:57:00.576Z,12.65
2022-11-21T01:59:31.371Z,12.30
2022-11-21T02:02:01.595Z,13.82
2022-11-21T02:04:32.739Z,12.73
2022-11-21T02:07:01.847Z,13.23
2022-11-21T02:09:31.494Z,13.68
2022-11-21T02:12:03.831Z,13.13
2022-11-21T02:14:31.841Z,16.35
2022-11-21T02:17:03.022Z,14.13
2022-11-21T02:19:44.942Z,13.88
2022-11-21T02:22:38.858Z,14.38
2022-11-21T02:25:15.278Z,14.00
2022-11-21T02:27:42.777Z,14.18
2022-11-21T02:30:11.158Z,14.45
2022-11-21T02:32:41.648Z,14.88
2022-11-21T02:35:09.621Z,13.43
2022-11-21T02:37:37.688Z,14.20
2022-11-21T02:40:12.932Z,14.18
2022-11-21T02:42:58.552Z,13.75
2022-11-21T02:45:28.969Z,13.05
2022-11-21T02:48:03.387Z,13.45
2022-11-21T02:50:34.291Z,13.77
2022-11-21T02:53:01.699Z,14.23
2022-11-21T02:55:29.058Z,14.57
2022-11-21T02:57:59.049Z,14.60
2022-11-21T03:00:28.582Z,14.73
2022-11-21T03:02:56.209Z,14.82
2022-11-21T03:05:23.901Z,14.60
2022-11-21T03:07:50.957Z,15.13
2022-11-21T03:10:18.205Z,15.75
2022-11-21T03:12:45.212Z,16.08
2022-11-21T03:15:14.814Z,16.80
2022-11-21T03:17:42.274Z,16.20
2022-11-21T03:20:09.653Z,16.38
2022-11-21T03:22:36.726Z,18.00
2022-11-21T03:25:04.191Z,14.52
2022-11-21T03:27:31.545Z,16.75
2022-11-21T03:29:58.555Z,15.93
2022-11-21T03:32:25.639Z,16.58
2022-11-21T03:34:53.765Z,17.10
2022-11-21T03:37:20.814Z,16.73
2022-11-21T03:39:47.908Z,16.70
2022-11-21T03:42:15.015Z,17.30
2022-11-21T03:44:42.517Z,18.13
2022-11-21T03:47:09.520Z,17.45
2022-11-21T03:49:36.566Z,17.45
2022-11-21T03:52:03.768Z,16.63
2022-11-21T03:54:31.018Z,16.65
2022-11-21T03:56:58.175Z,16.83
2022-11-21T03:59:26.288Z,16.25
2022-11-21T04:01:53.291Z,17.23
2022-11-21T04:04:20.286Z,16.42
2022-11-21T04:06:48.104Z,16.90
2022-11-21T04:09:15.020Z,16.67
2022-11-21T04:11:42.266Z,17.25
2022-11-21T04:14:09.075Z,16.10
2022-11-21T04:16:35.956Z,16.67
2022-11-21T04:19:02.852Z,14.73
2022-11-21T04:21:30.065Z,16.23
2022-11-21T04:23:56.953Z,16.95
2022-11-21T04:26:23.753Z,16.35
2022-11-21T04:28:50.997Z,17.85
2022-11-21T04:31:17.831Z,16.63
2022-11-21T04:33:44.629Z,16.98
2022-11-21T04:36:11.599Z,18.17
2022-11-21T04:38:38.441Z,16.52
2022-11-21T04:41:05.377Z,16.75
2022-11-21T04:43:32.262Z,17.50
2022-11-21T04:45:59.085Z,16.55
2022-11-21T04:48:25.981Z,16.45
2022-11-21T04:50:52.796Z,16.52
2022-11-21T04:53:19.655Z,15.75
2022-11-21T04:55:46.466Z,15.30
2022-11-21T04:58:13.729Z,15.00
2022-11-21T05:00:40.543Z,14.15
2022-11-21T05:03:08.287Z,15.57
2022-11-21T05:05:35.168Z,15.20
2022-11-21T05:08:02.048Z,15.48
2022-11-21T05:10:28.983Z,14.27
2022-11-21T05:13:18.788Z,16.10
2022-11-21T05:15:45.934Z,14.95
2022-11-21T05:18:13.248Z,15.70
2022-11-21T05:20:40.137Z,16.00
2022-11-21T05:23:07.013Z,15.77
2022-11-21T05:25:33.868Z,15.48
2022-11-21T05:28:00.681Z,16.08
2022-11-21T05:30:27.582Z,16.30
2022-11-21T05:32:54.405Z,17.95
2022-11-21T05:35:21.268Z,14.48
2022-11-21T05:37:48.183Z,16.15
2022-11-21T05:40:15.257Z,14.90
2022-11-21T05:43:03.268Z,15.43
2022-11-21T05:45:30.124Z,15.82
2022-11-21T05:47:56.945Z,15.65
2022-11-21T05:50:23.790Z,16.35
2022-11-21T05:52:51.074Z,16.85
2022-11-21T05:55:18.329Z,17.38
2022-11-21T05:57:45.165Z,16.67
2022-11-21T06:00:12.856Z,15.13
2022-11-21T06:02:58.556Z,15.32
2022-11-21T06:05:25.833Z,12.82
2022-11-21T06:07:52.680Z,13.98
2022-11-21T06:10:19.555Z,12.35
2022-11-21T06:12:46.362Z,11.57
2022-11-21T06:15:13.624Z,11.60
2022-11-21T06:17:40.409Z,11.63
2022-11-21T06:20:08.092Z,13.77
2022-11-21T06:22:34.934Z,11.80
2022-11-21T06:25:01.846Z,13.80
2022-11-21T06:27:29.852Z,14.30
2022-11-21T06:29:56.742Z,14.23
2022-11-21T06:32:23.668Z,13.73
2022-11-21T06:34:50.550Z,16.75
2022-11-21T06:37:17.500Z,15.52
2022-11-21T06:39:44.403Z,13.55
2022-11-21T06:42:11.300Z,13.98
2022-11-21T06:44:38.109Z,14.50
2022-11-21T06:47:05.082Z,14.25
2022-11-21T06:49:32.178Z,14.93
2022-11-21T06:51:59.633Z,13.88
2022-11-21T06:54:26.634Z,15.02
2022-11-21T06:56:55.674Z,14.73
2022-11-21T06:59:22.571Z,13.30
2022-11-21T07:01:49.960Z,14.05
2022-11-21T07:04:17.096Z,14.95
2022-11-21T07:06:44.023Z,13.80
2022-11-21T07:09:32.191Z,16.63
2022-11-21T07:12:18.183Z,16.67
2022-11-21T07:14:45.205Z,15.85
2022-11-21T07:17:12.917Z,17.08
2022-11-21T07:19:41.100Z,17.80
2022-11-21T07:22:08.758Z,17.08
2022-11-21T07:24:35.767Z,17.45
2022-11-21T07:27:03.117Z,17.75
2022-11-21T07:29:30.474Z,17.33
2022-11-21T07:31:57.764Z,18.17
2022-11-21T07:34:24.773Z,17.48
2022-11-21T07:36:51.927Z,18.15
2022-11-21T07:39:19.524Z,18.42
2022-11-21T07:41:46.648Z,16.92
2022-11-21T07:44:13.689Z,17.63
2022-11-21T07:46:40.732Z,18.13
2022-11-21T07:49:07.727Z,15.90
2022-11-21T07:51:34.826Z,18.65
2022-11-21T07:54:01.892Z,18.67
2022-11-21T07:56:29.066Z,23.83
2022-11-21T07:58:56.008Z,17.02
2022-11-21T08:01:23.155Z,17.90
2022-11-21T08:03:50.101Z,18.42
2022-11-21T08:06:17.002Z,17.40
2022-11-21T08:08:44.673Z,17.38
2022-11-21T08:11:11.554Z,16.48
2022-11-21T08:13:38.377Z,18.27
2022-11-21T08:16:05.643Z,16.60
2022-11-21T08:18:32.596Z,17.50
2022-11-21T08:24:47.012Z,16.85
2022-11-21T08:27:14.685Z,15.73
2022-11-21T08:29:41.487Z,15.70
2022-11-21T08:32:08.760Z,16.35
2022-11-21T08:38:17.150Z,14.40
2022-11-21T08:40:44.004Z,15.48
2022-11-21T08:43:10.999Z,15.23
2022-11-21T08:45:39.798Z,16.23
2022-11-21T08:48:11.739Z,15.05
2022-11-21T08:50:38.812Z,16.48
2022-11-21T08:56:58.772Z,16.88
2022-11-21T08:59:25.641Z,16.83
2022-11-21T09:01:53.120Z,16.45
2022-11-21T09:04:19.998Z,16.27
2022-11-21T09:06:48.078Z,17.65
2022-11-21T09:09:15.024Z,17.35
2022-11-21T09:11:42.474Z,19.42
2022-11-21T09:14:27.944Z,18.25
2022-11-21T09:17:13.380Z,18.92
2022-11-21T09:19:40.232Z,19.05
2022-11-21T09:22:07.097Z,19.48
2022-11-21T09:24:33.973Z,18.42
2022-11-21T09:27:00.870Z,20.65
2022-11-21T09:29:28.105Z,20.27
2022-11-21T09:31:55.077Z,22.88
2022-11-21T09:34:21.969Z,21.13
2022-11-21T09:36:48.776Z,21.63
2022-11-21T09:39:15.704Z,23.42
2022-11-21T09:42:04.750Z,25.50
2022-11-21T09:44:31.565Z,25.98
2022-11-21T09:47:23.362Z,27.80
2022-11-21T09:50:00.079Z,25.50
2022-11-21T09:52:39.146Z,29.58
2022-11-21T09:55:16.892Z,31.30
2022-11-21T10:02:17.051Z,30.05
2022-11-21T10:04:45.562Z,32.05
2022-11-21T10:07:17.979Z,32.50
2022-11-21T10:10:12.931Z,34.10
2022-11-21T10:12:40.215Z,34.83
2022-11-21T10:15:39.926Z,33.00
2022-11-21T10:18:31.645Z,31.80
2022-11-21T10:21:07.663Z,32.75
2022-11-21T10:24:03.044Z,37.28
2022-11-21T10:26:40.009Z,32.28
2022-11-21T10:29:15.805Z,36.25
2022-11-21T10:31:43.884Z,31.45
2022-11-21T10:34:18.138Z,32.95
2022-11-21T10:36:54.125Z,32.80
2022-11-21T10:39:35.021Z,30.42
2022-11-21T10:42:14.364Z,30.48
2022-11-21T10:48:29.052Z,29.58
2022-11-21T10:51:27.660Z,29.17
2022-11-21T10:54:23.398Z,27.80
2022-11-21T10:56:51.229Z,28.38
2022-11-21T10:59:30.371Z,28.27
2022-11-21T11:02:20.963Z,27.75
2022-11-21T11:04:52.239Z,28.45
2022-11-21T11:07:29.087Z,28.98
2022-11-21T11:10:15.510Z,27.38
2022-11-21T11:13:02.078Z,28.40
2022-11-21T11:15:31.998Z,29.33
2022-11-21T11:18:07.654Z,28.35
2022-11-21T11:20:45.384Z,28.95
2022-11-21T11:23:22.435Z,28.63
2022-11-21T11:25:54.543Z,31.15
2022-11-21T11:32:26.717Z,29.98
2022-11-21T11:34:53.559Z,30.60
2022-11-21T11:37:41.432Z,31.65
2022-11-21T11:40:25.695Z,29.77
2022-11-21T11:43:35.593Z,32.90
2022-11-21T11:46:52.611Z,33.40
2022-11-21T11:49:56.033Z,31.42
2022-11-21T11:52:26.713Z,31.90
2022-11-21T11:54:59.986Z,34.40
2022-11-21T11:57:30.374Z,35.58
2022-11-21T12:00:26.031Z,35.20
2022-11-21T12:03:06.993Z,37.38
2022-11-21T12:05:34.795Z,37.60
2022-11-21T12:11:30.101Z,40.63
2022-11-21T12:13:57.799Z,36.75
2022-11-21T12:16:26.947Z,41.10
2022-11-21T12:19:03.002Z,40.53
2022-11-21T12:21:30.081Z,38.63
2022-11-21T12:24:03.227Z,40.45
2022-11-21T12:26:53.967Z,36.97
2022-11-21T12:29:39.294Z,37.20
2022-11-21T12:32:43.766Z,37.72
2022-11-21T12:35:19.564Z,39.22
2022-11-21T12:38:06.677Z,39.83
2022-11-21T12:41:23.684Z,37.55
2022-11-21T12:44:02.522Z,38.55
2022-11-21T12:46:36.146Z,38.03
2022-11-21T12:49:54.881Z,39.27
2022-11-21T12:52:55.482Z,36.42
2022-11-21T12:55:35.358Z,37.72
2022-11-21T12:58:13.964Z,38.70
2022-11-21T13:00:45.186Z,36.85
2022-11-21T13:03:27.334Z,36.60
2022-11-21T13:05:57.292Z,38.42
2022-11-21T13:08:29.675Z,38.42
2022-11-21T13:11:16.429Z,37.10
2022-11-21T13:13:47.167Z,35.67
2022-11-21T13:16:39.733Z,38.70
2022-11-21T13:19:27.677Z,36.88
2022-11-21T13:21:55.153Z,40.05
2022-11-21T13:24:45.269Z,40.65
2022-11-21T13:27:39.471Z,41.10
2022-11-21T13:30:10.446Z,41.72
2022-11-21T13:32:42.192Z,39.20
2022-11-21T13:35:15.275Z,39.50
2022-11-21T13:38:08.291Z,39.28
2022-11-21T13:40:39.997Z,37.38
2022-11-21T13:43:32.802Z,37.60
2022-11-21T13:45:59.463Z,39.67
2022-11-21T13:48:26.761Z,39.80
2022-11-21T13:50:56.655Z,39.75
2022-11-21T13:53:58.078Z,42.65
2022-11-21T14:00:21.760Z,39.72
2022-11-21T14:03:07.137Z,39.38
2022-11-21T14:05:34.446Z,40.33
2022-11-21T14:08:21.467Z,40.03
2022-11-21T14:10:51.080Z,41.50
2022-11-21T14:13:30.448Z,43.72
2022-11-21T14:16:15.911Z,40.95
2022-11-21T14:18:44.876Z,42.10
2022-11-21T14:21:31.055Z,44.15
2022-11-21T14:24:05.735Z,44.63
2022-11-21T14:26:42.053Z,43.40
2022-11-21T14:29:40.320Z,42.30
2022-11-21T14:32:14.473Z,39.85
2022-11-21T14:34:41.420Z,42.78
2022-11-21T14:37:08.568Z,42.15
2022-11-21T14:39:44.152Z,44.45
2022-11-21T14:42:16.324Z,41.85
2022-11-21T14:44:43.676Z,41.95
2022-11-21T14:47:24.679Z,42.33
2022-11-21T14:50:02.237Z,42.50
2022-11-21T14:52:34.040Z,42.72
2022-11-21T14:57:52.253Z,41.58
2022-11-21T15:00:57.509Z,43.15
2022-11-21T15:03:23.810Z,41.10
2022-11-21T15:06:06.249Z,44.42
2022-11-21T15:11:34.465Z,43.70
2022-11-21T15:14:15.583Z,44.55
2022-11-21T15:16:47.270Z,44.72
2022-11-21T15:19:27.426Z,43.42
2022-11-21T15:21:57.060Z,44.65
2022-11-21T15:24:33.680Z,43.92
2022-11-21T15:27:01.012Z,43.65
2022-11-21T15:29:29.584Z,41.78
2022-11-21T15:32:13.987Z,45.33
2022-11-21T15:34:56.497Z,43.55
2022-11-21T15:37:25.406Z,44.67
2022-11-21T15:39:53.724Z,45.33
2022-11-21T15:42:32.947Z,42.78
2022-11-21T15:45:22.114Z,44.47
2022-11-21T15:47:49.430Z,42.08
2022-11-21T15:50:17.062Z,43.80
2022-11-21T15:52:49.020Z,45.15
2022-11-21T15:55:26.414Z,45.40
2022-11-21T15:57:53.223Z,41.97
2022-11-21T16:00:20.211Z,44.30
2022-11-21T16:02:47.505Z,44.17
2022-11-21T16:05:15.942Z,45.35
2022-11-21T16:07:42.976Z,42.28
2022-11-21T16:10:18.220Z,42.92
2022-11-21T16:12:48.470Z,44.22
2022-11-21T16:15:15.431Z,44.28
2022-11-21T16:17:42.432Z,46.60
2022-11-21T16:20:09.624Z,45.67
2022-11-21T16:22:36.635Z,45.47
2022-11-21T16:25:03.527Z,44.10
2022-11-21T16:27:32.325Z,44.25
2022-11-21T16:29:59.163Z,43.28
2022-11-21T16:36:14.375Z,41.58
2022-11-21T16:38:42.996Z,45.85
2022-11-21T16:41:09.895Z,47.10
2022-11-21T16:43:37.260Z,43.13
2022-11-21T16:46:09.074Z,45.17
2022-11-21T16:48:36.010Z,45.92
2022-11-21T16:51:22.495Z,44.97
2022-11-21T16:53:49.806Z,42.53
2022-11-21T16:56:17.146Z,44.08
2022-11-21T16:58:44.373Z,42.28
2022-11-21T17:01:18.787Z,42.70
2022-11-21T17:06:18.927Z,47.25
2022-11-21T17:08:47.144Z,48.97
2022-11-21T17:11:22.058Z,49.88
2022-11-21T17:13:50.623Z,43.92
2022-11-21T17:16:19.825Z,43.60
2022-11-21T17:18:46.747Z,45.47
2022-11-21T17:21:15.922Z,44.22
2022-11-21T17:23:44.673Z,46.22
2022-11-21T17:26:17.633Z,46.05
2022-11-21T17:28:46.170Z,43.58
2022-11-21T17:31:15.659Z,43.85
2022-11-21T17:33:43.928Z,44.03
2022-11-21T17:36:13.036Z,43.95
2022-11-21T17:38:40.257Z,39.78
2022-11-21T17:41:10.447Z,43.70
2022-11-21T17:43:37.523Z,41.17
2022-11-21T17:46:09.843Z,46.90
2022-11-21T17:48:37.890Z,41.53
2022-11-21T17:51:11.310Z,42.88
2022-11-21T17:53:41.559Z,41.15
2022-11-21T17:56:11.645Z,42.20
2022-11-21T17:58:38.566Z,43.97
2022-11-21T18:01:06.875Z,41.88
2022-11-21T18:03:34.038Z,40.88
2022-11-21T18:06:09.496Z,43.78
2022-11-21T18:08:38.697Z,42.15
2022-11-21T18:11:07.521Z,42.72
2022-11-21T18:13:35.522Z,42.50
2022-11-21T18:16:04.601Z,42.63
2022-11-21T18:18:32.461Z,43.83
2022-11-21T18:21:13.929Z,44.05
2022-11-21T18:23:40.985Z,42.63
2022-11-21T18:26:14.714Z,42.85
2022-11-21T18:28:41.993Z,43.88
2022-11-21T18:31:12.235Z,43.92
2022-11-21T18:33:39.783Z,42.72
2022-11-21T18:36:08.360Z,45.55
2022-11-21T18:38:48.849Z,42.55
2022-11-21T18:41:20.292Z,42.22
2022-11-21T18:44:06.782Z,43.90
2022-11-21T18:46:36.127Z,45.58
2022-11-21T18:49:06.516Z,43.22
2022-11-21T18:51:35.402Z,44.60
2022-11-21T18:54:07.298Z,42.95
2022-11-21T18:56:35.718Z,45.00
2022-11-21T18:59:04.038Z,42.53
2022-11-21T19:01:33.035Z,44.15
2022-11-21T19:04:00.113Z,42.00
2022-11-21T19:06:27.974Z,44.28
2022-11-21T19:08:57.409Z,41.95
2022-11-21T19:11:27.203Z,43.70
2022-11-21T19:13:55.189Z,46.00
2022-11-21T19:16:27.123Z,44.95
2022-11-21T19:19:31.894Z,43.35
2022-11-21T19:21:42.653Z,45.25
2022-11-21T19:24:13.976Z,46.60
2022-11-21T19:26:41.771Z,46.15
2022-11-21T19:29:08.914Z,43.42
2022-11-21T19:31:42.593Z,44.53
2022-11-21T19:34:13.080Z,44.78
2022-11-21T19:36:40.086Z,47.30
2022-11-21T19:39:06.937Z,44.03
2022-11-21T19:41:33.895Z,42.22
2022-11-21T19:44:01.968Z,43.10
2022-11-21T19:46:31.974Z,47.70
2022-11-21T19:48:59.433Z,43.33
2022-11-21T19:51:31.676Z,42.30
2022-11-21T19:53:59.144Z,45.00
2022-11-21T19:56:26.664Z,48.22
2022-11-21T19:58:55.920Z,45.15
2022-11-21T20:01:25.071Z,44.83
2022-11-21T20:03:55.603Z,42.05
2022-11-21T20:06:25.778Z,43.15
2022-11-21T20:08:57.789Z,44.67
2022-11-21T20:11:26.673Z,44.35
2022-11-21T20:13:54.043Z,41.80
2022-11-21T20:16:31.791Z,40.92
2022-11-21T20:19:06.659Z,43.53
2022-11-21T20:21:34.114Z,40.95
2022-11-21T20:24:01.532Z,44.13
2022-11-21T20:26:28.882Z,43.45
2022-11-21T20:28:56.453Z,44.00
2022-11-21T20:31:27.363Z,42.65
2022-11-21T20:34:02.671Z,42.08
2022-11-21T20:36:31.287Z,44.20
2022-11-21T20:39:12.989Z,43.65
2022-11-21T20:41:39.944Z,45.58
2022-11-21T20:46:57.702Z,43.85
2022-11-21T20:49:24.645Z,42.33
2022-11-21T20:54:38.540Z,43.65
2022-11-21T20:57:09.231Z,41.92
2022-11-21T20:59:40.124Z,44.28
2022-11-21T21:02:11.781Z,41.72
2022-11-21T21:04:38.684Z,41.45
2022-11-21T21:07:05.633Z,41.67
2022-11-21T21:09:32.576Z,43.00
2022-11-21T21:11:59.460Z,40.40
2022-11-21T21:14:26.336Z,42.00
2022-11-21T21:16:53.176Z,42.33
2022-11-21T21:19:22.844Z,42.00
2022-11-21T21:21:49.846Z,47.95
2022-11-21T21:24:17.425Z,43.15
2022-11-21T21:26:48.907Z,45.15
2022-11-21T21:29:20.665Z,43.80
2022-11-21T21:31:51.638Z,38.85
2022-11-21T21:34:20.337Z,42.97
2022-11-21T21:36:47.399Z,43.83
2022-11-21T21:39:14.465Z,44.28
2022-11-21T21:41:44.569Z,43.88
2022-11-21T21:44:12.061Z,48.92
2022-11-21T21:46:39.030Z,44.13
2022-11-21T21:49:05.883Z,41.42
2022-11-21T21:51:32.767Z,44.03
2022-11-21T21:54:00.393Z,42.42
2022-11-21T21:56:28.608Z,42.35
2022-11-21T21:58:57.474Z,41.65
2022-11-21T22:01:27.792Z,42.72
2022-11-21T22:03:57.129Z,44.38
2022-11-21T22:06:24.237Z,42.50
2022-11-21T22:08:51.704Z,45.25
2022-11-21T22:11:21.051Z,43.10
2022-11-21T22:13:52.315Z,43.83
2022-11-21T22:16:19.513Z,44.63
2022-11-21T22:18:46.454Z,44.70
2022-11-21T22:21:24.608Z,44.35
2022-11-21T22:24:17.692Z,43.92
2022-11-21T22:26:38.975Z,42.05
2022-11-21T22:29:06.217Z,43.75
2022-11-21T22:31:33.397Z,44.33
2022-11-21T22:34:00.631Z,44.60
2022-11-21T22:36:27.545Z,44.00
2022-11-21T22:38:55.218Z,42.58
2022-11-21T22:41:24.500Z,45.88
2022-11-21T22:43:53.478Z,45.30
2022-11-21T22:46:21.113Z,46.65
2022-11-21T22:48:48.673Z,45.38
2022-11-21T22:51:19.663Z,47.20
2022-11-21T22:53:48.027Z,43.47
2022-11-21T22:56:17.724Z,42.50
2022-11-21T22:58:45.774Z,46.30
2022-11-21T23:01:15.124Z,45.50
2022-11-21T23:03:43.335Z,44.90
2022-11-21T23:06:12.944Z,46.00
2022-11-21T23:08:40.738Z,46.60
2022-11-21T23:11:14.211Z,48.03
2022-11-21T23:13:43.136Z,45.38
2022-11-21T23:16:10.875Z,48.53
2022-11-21T23:18:38.499Z,45.10
2022-11-21T23:21:06.090Z,46.35
2022-11-21T23:23:33.156Z,47.20
2022-11-21T23:26:00.471Z,46.90
2022-11-21T23:28:27.713Z,44.45
2022-11-21T23:30:54.592Z,44.92
2022-11-21T23:33:21.854Z,47.25
2022-11-21T23:35:49.276Z,47.90
2022-11-21T23:38:17.442Z,46.92
2022-11-21T23:40:48.001Z,52.75
2022-11-21T23:43:15.962Z,48.03
2022-11-21T23:45:43.907Z,48.58
2022-11-21T23:48:11.145Z,46.88
2022-11-21T23:50:38.364Z,49.58
2022-11-21T23:53:05.252Z,51.20
2022-11-21T23:55:32.444Z,48.45
2022-11-21T23:57:59.759Z,46.83
